Hlavní strana
METAR-TAF:

METAR-TAF

Letiště :

Mezinárodní letiště Hongkong

Hongkong, Čína

zeměpisná šířka: 22-19N, zeměpisná délka: 113-55E, výška: 9 m

Aktuální stav počasí

Zpráva byla vytvořena před 33 minutami, v 23:30 UTC
Severozápadní vítr 11 kt
Teplota 23°C
Vlhkost vzduchu 94%
Tlak 1014 hPa
Viditelnost: 6000 m
Skoro jasno ve výšce 600 ft
Polojasno ve výšce 1600 ft
slabé dešťové přeháňky

METAR: VHHH 152330Z 32011KT 6000 -SHRA FEW006 SCT016 23/22 Q1014 NOSIG

Čas: 08:03 (00:03 UTC)

Předpověď počasí

Zpráva byla vytvořena před 1 hodinou a 3 minutami, v 23:00 UTC
Předpověď platná od 16 v 00 UTC do 17 v 06 UTC
Severoseverozápadní vítr 10 kt
Viditelnost: 7000 m
Skoro jasno ve výšce 700 ft
Polojasno ve výšce 2000 ft
Dočasný
od 16 v 00 UTC do 16 v 09 UTC
Viditelnost: 3000 m
slabý déšť, kouřmo
Změna
od 16 v 09 UTC do 16 v 11 UTC
Severoseverovýchodní vítr 10 kt

TAF: VHHH 152300Z 1600/1706 33010KT 7000 FEW007 SCT020 TX25/1607Z TX24/1706Z TN21/1622Z TEMPO 1600/1609 3000 -RA BR BECMG 1609/1611 03010KT

Stav a předpovědi počasí z více než 4 000 letišť (zprávy METAR a TAF).

Červené a žluté tečky na mapě představují dostupné meteorologické stanice.

Když kurzor umístíte na tečku, zobrazí se název stanice.

Pak kliknutím zobrazíte stav a předpověď počasí.

Chcete-li změnit mapu, kliknutím na zelené tlačítko se znaménkem +mapu přiblížíte, kliknutím na zelené tlačítko se znaménkem – mapu oddálíte a kliknutím na zelené šipky přejdete na sousední mapy.


METAR-TAF: